ICAO code: LHPR | IATA code: QGY | AFTN: LHPRZPZX | english | deutsch
Időjárás: 2019-02-22 06:40 (UTC) | Hőmérséklet: 6.5 °C | QNH: 1021.4 hPa | Szél: 6.7 m/s | Részletek
Live ATC LHPR
Webkameránk élőképe

Győr-Pér Repülőtér időjárás adatok

Metar:
METAR LHPR 212245Z AUTO VRB01KT 8000 FEW042 06/05 Q1023 RMK BL


Taf:
TAF LHPR 212000Z NIL


Jelenidő:
Párásság
Időbélyeg: 2019-02-22 06:40:00 UTC
Hőmérséklet:
6.5 °C
 
Harmatpont:
5.7 °C
 
Rel. páratartalom:
94%
 
QNH:
1021.4 hPa
 
Szélsebesség:
6.7 m/s
Max:
8.0 m/s
Szélirány:
300°
 
Csapadék (1 óra):
0.0 mm
 
Látótávolság:
8945 m
 
RVR:
>1500 m RWY30
 
1. felhőréteg mennyisége:
5 octa
 
1. felhőréteg alapja:
780 m


Az adatokat szolgáltatja
az Országos Meteorológiai Szolgálat
Győr-Pér Repülőtér | H 9099 Pér, Repülőtér | Tel: +36/96/559-200 | Fax: +36/96/559-202

ICAO code: LHPR | IATA code: QGY | AFTN: LHPRZPZX


weboldal tervezés: IRQ